sensor_id;sensor_type;location;lat;lon;timestamp;temperature;humidity
57857;DHT22;43683;48.650;9.290;2022-12-07T00:03:30;4.10;91.50
57857;DHT22;43683;48.650;9.290;2022-12-07T00:05:59;4.10;91.50
57857;DHT22;43683;48.650;9.290;2022-12-07T00:08:25;4.10;91.50
57857;DHT22;43683;48.650;9.290;2022-12-07T00:10:51;4.10;91.50
57857;DHT22;43683;48.650;9.290;2022-12-07T00:13:16;4.10;91.50
57857;DHT22;43683;48.650;9.290;2022-12-07T00:15:42;4.10;91.80
57857;DHT22;43683;48.650;9.290;2022-12-07T00:18:07;4.10;91.50
57857;DHT22;43683;48.650;9.290;2022-12-07T00:20:33;4.10;91.50
57857;DHT22;43683;48.650;9.290;2022-12-07T00:22:59;4.10;91.50
57857;DHT22;43683;48.650;9.290;2022-12-07T00:25:25;4.10;91.50
57857;DHT22;43683;48.650;9.290;2022-12-07T00:27:53;4.10;91.50
57857;DHT22;43683;48.650;9.290;2022-12-07T00:30:21;4.00;91.50
57857;DHT22;43683;48.650;9.290;2022-12-07T00:32:46;4.00;91.50
57857;DHT22;43683;48.650;9.290;2022-12-07T00:35:12;4.00;91.50
57857;DHT22;43683;48.650;9.290;2022-12-07T00:37:38;4.00;91.50
57857;DHT22;43683;48.650;9.290;2022-12-07T00:40:04;4.00;91.50
57857;DHT22;43683;48.650;9.290;2022-12-07T00:42:29;4.00;91.50
57857;DHT22;43683;48.650;9.290;2022-12-07T00:44:55;4.00;91.50
57857;DHT22;43683;48.650;9.290;2022-12-07T00:47:20;4.00;91.50
57857;DHT22;43683;48.650;9.290;2022-12-07T00:49:46;4.00;91.50
57857;DHT22;43683;48.650;9.290;2022-12-07T00:52:11;4.00;91.50
57857;DHT22;43683;48.650;9.290;2022-12-07T00:54:37;4.00;91.50
57857;DHT22;43683;48.650;9.290;2022-12-07T00:57:02;4.00;91.60
57857;DHT22;43683;48.650;9.290;2022-12-07T00:59:28;4.00;91.90
57857;DHT22;43683;48.650;9.290;2022-12-07T01:01:54;3.90;91.60
57857;DHT22;43683;48.650;9.290;2022-12-07T01:04:19;3.90;91.60
57857;DHT22;43683;48.650;9.290;2022-12-07T01:06:45;3.90;91.60
57857;DHT22;43683;48.650;9.290;2022-12-07T01:09:10;3.90;91.60
57857;DHT22;43683;48.650;9.290;2022-12-07T01:11:36;3.90;92.00
57857;DHT22;43683;48.650;9.290;2022-12-07T01:14:02;3.90;91.60
57857;DHT22;43683;48.650;9.290;2022-12-07T01:16:29;3.90;91.60
57857;DHT22;43683;48.650;9.290;2022-12-07T01:18:56;3.90;91.60
57857;DHT22;43683;48.650;9.290;2022-12-07T01:21:40;3.90;91.70
57857;DHT22;43683;48.650;9.290;2022-12-07T01:24:07;3.90;91.80
57857;DHT22;43683;48.650;9.290;2022-12-07T01:26:34;3.80;91.80
57857;DHT22;43683;48.650;9.290;2022-12-07T01:28:59;3.80;91.80
57857;DHT22;43683;48.650;9.290;2022-12-07T01:31:27;3.80;91.90
57857;DHT22;43683;48.650;9.290;2022-12-07T01:33:55;3.80;91.90
57857;DHT22;43683;48.650;9.290;2022-12-07T01:36:23;3.80;91.90
57857;DHT22;43683;48.650;9.290;2022-12-07T01:38:52;3.80;91.90
57857;DHT22;43683;48.650;9.290;2022-12-07T01:41:20;3.80;92.00
57857;DHT22;43683;48.650;9.290;2022-12-07T01:46:37;3.80;91.90
57857;DHT22;43683;48.650;9.290;2022-12-07T01:49:06;3.80;91.80
57857;DHT22;43683;48.650;9.290;2022-12-07T01:51:33;3.80;91.80
57857;DHT22;43683;48.650;9.290;2022-12-07T01:54:00;3.80;91.80
57857;DHT22;43683;48.650;9.290;2022-12-07T01:56:27;3.80;91.80
57857;DHT22;43683;48.650;9.290;2022-12-07T01:58:54;3.80;91.80
57857;DHT22;43683;48.650;9.290;2022-12-07T02:01:22;3.80;91.90
57857;DHT22;43683;48.650;9.290;2022-12-07T02:03:48;3.70;91.90
57857;DHT22;43683;48.650;9.290;2022-12-07T02:06:17;3.70;92.00
57857;DHT22;43683;48.650;9.290;2022-12-07T02:08:45;3.60;92.00
57857;DHT22;43683;48.650;9.290;2022-12-07T02:11:11;3.60;92.00
57857;DHT22;43683;48.650;9.290;2022-12-07T02:13:39;3.60;92.00
57857;DHT22;43683;48.650;9.290;2022-12-07T02:28:07;3.50;92.00
57857;DHT22;43683;48.650;9.290;2022-12-07T02:30:38;3.50;92.00
57857;DHT22;43683;48.650;9.290;2022-12-07T02:33:11;3.40;92.00
57857;DHT22;43683;48.650;9.290;2022-12-07T02:40:48;3.40;92.00
57857;DHT22;43683;48.650;9.290;2022-12-07T02:43:23;3.30;92.00
57857;DHT22;43683;48.650;9.290;2022-12-07T02:45:51;3.40;92.10
57857;DHT22;43683;48.650;9.290;2022-12-07T02:48:19;3.30;92.10
57857;DHT22;43683;48.650;9.290;2022-12-07T02:50:52;3.30;92.10
57857;DHT22;43683;48.650;9.290;2022-12-07T02:53:39;3.30;92.10
57857;DHT22;43683;48.650;9.290;2022-12-07T03:07:51;3.20;92.10
57857;DHT22;43683;48.650;9.290;2022-12-07T03:18:25;3.10;92.10
57857;DHT22;43683;48.650;9.290;2022-12-07T03:20:55;3.10;92.50
57857;DHT22;43683;48.650;9.290;2022-12-07T03:23:22;3.10;92.20
57857;DHT22;43683;48.650;9.290;2022-12-07T03:25:56;3.00;92.20
57857;DHT22;43683;48.650;9.290;2022-12-07T03:28:24;3.00;92.30
57857;DHT22;43683;48.650;9.290;2022-12-07T03:31:27;3.00;92.60
57857;DHT22;43683;48.650;9.290;2022-12-07T03:36:50;3.00;92.40
57857;DHT22;43683;48.650;9.290;2022-12-07T03:41:50;2.90;92.40
57857;DHT22;43683;48.650;9.290;2022-12-07T03:44:16;2.90;92.40
57857;DHT22;43683;48.650;9.290;2022-12-07T03:49:48;2.90;92.40
57857;DHT22;43683;48.650;9.290;2022-12-07T03:52:26;2.90;92.50
57857;DHT22;43683;48.650;9.290;2022-12-07T03:55:00;2.80;92.50
57857;DHT22;43683;48.650;9.290;2022-12-07T03:57:28;2.80;92.50
57857;DHT22;43683;48.650;9.290;2022-12-07T03:59:56;2.80;92.50
57857;DHT22;43683;48.650;9.290;2022-12-07T04:02:23;2.80;92.50
57857;DHT22;43683;48.650;9.290;2022-12-07T04:04:50;2.80;92.50
57857;DHT22;43683;48.650;9.290;2022-12-07T04:07:15;2.80;92.50
57857;DHT22;43683;48.650;9.290;2022-12-07T04:09:41;2.80;92.50
57857;DHT22;43683;48.650;9.290;2022-12-07T04:12:07;2.80;92.50
57857;DHT22;43683;48.650;9.290;2022-12-07T04:14:33;2.80;92.50
57857;DHT22;43683;48.650;9.290;2022-12-07T04:16:59;2.70;92.50
57857;DHT22;43683;48.650;9.290;2022-12-07T04:19:27;2.70;92.50
57857;DHT22;43683;48.650;9.290;2022-12-07T04:21:53;2.70;92.50
57857;DHT22;43683;48.650;9.290;2022-12-07T04:24:19;2.70;92.60
57857;DHT22;43683;48.650;9.290;2022-12-07T04:26:45;2.70;92.50
57857;DHT22;43683;48.650;9.290;2022-12-07T04:29:12;2.70;92.60
57857;DHT22;43683;48.650;9.290;2022-12-07T04:31:38;2.70;92.60
57857;DHT22;43683;48.650;9.290;2022-12-07T04:34:04;2.70;92.60
57857;DHT22;43683;48.650;9.290;2022-12-07T04:36:30;2.70;92.60
57857;DHT22;43683;48.650;9.290;2022-12-07T04:38:56;2.70;92.60
57857;DHT22;43683;48.650;9.290;2022-12-07T04:41:23;2.70;92.60
57857;DHT22;43683;48.650;9.290;2022-12-07T04:43:56;2.70;92.60
57857;DHT22;43683;48.650;9.290;2022-12-07T04:46:23;2.70;92.60
57857;DHT22;43683;48.650;9.290;2022-12-07T04:48:50;2.60;92.60
57857;DHT22;43683;48.650;9.290;2022-12-07T04:51:19;2.60;92.70
57857;DHT22;43683;48.650;9.290;2022-12-07T04:53:45;2.50;92.70
57857;DHT22;43683;48.650;9.290;2022-12-07T04:56:11;2.40;92.80
57857;DHT22;43683;48.650;9.290;2022-12-07T04:58:36;2.30;92.90
57857;DHT22;43683;48.650;9.290;2022-12-07T05:01:02;2.20;92.90
57857;DHT22;43683;48.650;9.290;2022-12-07T05:03:27;2.00;93.00
57857;DHT22;43683;48.650;9.290;2022-12-07T05:05:53;1.80;93.20
57857;DHT22;43683;48.650;9.290;2022-12-07T05:08:18;1.60;93.50
57857;DHT22;43683;48.650;9.290;2022-12-07T05:10:44;1.50;93.60
57857;DHT22;43683;48.650;9.290;2022-12-07T05:13:09;1.40;93.60
57857;DHT22;43683;48.650;9.290;2022-12-07T05:15:35;1.50;93.60
57857;DHT22;43683;48.650;9.290;2022-12-07T05:18:00;1.50;93.50
57857;DHT22;43683;48.650;9.290;2022-12-07T05:20:26;1.60;93.30
57857;DHT22;43683;48.650;9.290;2022-12-07T05:22:51;1.60;93.20
57857;DHT22;43683;48.650;9.290;2022-12-07T05:25:17;1.70;93.10
57857;DHT22;43683;48.650;9.290;2022-12-07T05:27:42;1.80;93.10
57857;DHT22;43683;48.650;9.290;2022-12-07T05:30:08;1.80;93.00
57857;DHT22;43683;48.650;9.290;2022-12-07T05:32:34;1.90;92.90
57857;DHT22;43683;48.650;9.290;2022-12-07T05:34:59;1.90;92.90
57857;DHT22;43683;48.650;9.290;2022-12-07T05:37:25;2.00;92.90
57857;DHT22;43683;48.650;9.290;2022-12-07T05:39:50;2.00;92.80
57857;DHT22;43683;48.650;9.290;2022-12-07T05:42:16;2.00;92.80
57857;DHT22;43683;48.650;9.290;2022-12-07T05:44:44;2.00;93.00
57857;DHT22;43683;48.650;9.290;2022-12-07T05:47:11;1.80;93.30
57857;DHT22;43683;48.650;9.290;2022-12-07T05:49:37;1.70;93.50
57857;DHT22;43683;48.650;9.290;2022-12-07T05:52:03;1.60;93.60
57857;DHT22;43683;48.650;9.290;2022-12-07T05:54:28;1.60;93.60
57857;DHT22;43683;48.650;9.290;2022-12-07T05:56:54;1.50;93.60
57857;DHT22;43683;48.650;9.290;2022-12-07T05:59:20;1.50;93.60
57857;DHT22;43683;48.650;9.290;2022-12-07T06:01:53;1.40;93.60
57857;DHT22;43683;48.650;9.290;2022-12-07T06:04:20;1.40;93.60
57857;DHT22;43683;48.650;9.290;2022-12-07T06:06:47;1.40;93.60
57857;DHT22;43683;48.650;9.290;2022-12-07T06:09:13;1.20;93.70
57857;DHT22;43683;48.650;9.290;2022-12-07T06:11:39;1.10;93.80
57857;DHT22;43683;48.650;9.290;2022-12-07T06:14:24;1.00;93.90
57857;DHT22;43683;48.650;9.290;2022-12-07T06:16:50;1.00;93.90
57857;DHT22;43683;48.650;9.290;2022-12-07T06:19:15;0.90;93.90
57857;DHT22;43683;48.650;9.290;2022-12-07T06:21:41;0.90;93.90
57857;DHT22;43683;48.650;9.290;2022-12-07T06:24:08;0.90;93.80
57857;DHT22;43683;48.650;9.290;2022-12-07T06:26:34;1.00;93.80
57857;DHT22;43683;48.650;9.290;2022-12-07T06:28:59;1.10;93.70
57857;DHT22;43683;48.650;9.290;2022-12-07T06:31:25;1.10;93.60
57857;DHT22;43683;48.650;9.290;2022-12-07T06:33:51;1.20;93.50
57857;DHT22;43683;48.650;9.290;2022-12-07T06:36:16;1.30;93.40
57857;DHT22;43683;48.650;9.290;2022-12-07T06:38:42;1.30;93.40
57857;DHT22;43683;48.650;9.290;2022-12-07T06:41:07;1.30;93.40
57857;DHT22;43683;48.650;9.290;2022-12-07T06:43:33;1.30;93.40
57857;DHT22;43683;48.650;9.290;2022-12-07T06:45:59;1.30;93.40
57857;DHT22;43683;48.650;9.290;2022-12-07T06:48:24;1.30;93.40
57857;DHT22;43683;48.650;9.290;2022-12-07T06:50:50;1.30;93.40
57857;DHT22;43683;48.650;9.290;2022-12-07T06:53:15;1.30;93.40
57857;DHT22;43683;48.650;9.290;2022-12-07T06:55:41;1.30;93.40
57857;DHT22;43683;48.650;9.290;2022-12-07T06:58:07;1.40;93.40
57857;DHT22;43683;48.650;9.290;2022-12-07T07:00:32;1.40;93.50
57857;DHT22;43683;48.650;9.290;2022-12-07T07:03:00;1.50;93.30
57857;DHT22;43683;48.650;9.290;2022-12-07T07:05:26;1.60;93.20
57857;DHT22;43683;48.650;9.290;2022-12-07T07:07:51;1.60;93.20
57857;DHT22;43683;48.650;9.290;2022-12-07T07:10:17;1.70;93.10
57857;DHT22;43683;48.650;9.290;2022-12-07T07:12:42;1.80;93.40
57857;DHT22;43683;48.650;9.290;2022-12-07T07:15:08;1.80;93.00
57857;DHT22;43683;48.650;9.290;2022-12-07T07:17:34;1.90;93.00
57857;DHT22;43683;48.650;9.290;2022-12-07T07:20:00;1.90;93.00
57857;DHT22;43683;48.650;9.290;2022-12-07T07:22:25;1.90;93.00
57857;DHT22;43683;48.650;9.290;2022-12-07T07:24:51;2.00;93.00
57857;DHT22;43683;48.650;9.290;2022-12-07T07:27:17;2.00;93.00
57857;DHT22;43683;48.650;9.290;2022-12-07T07:29:42;2.10;93.00
57857;DHT22;43683;48.650;9.290;2022-12-07T07:32:08;2.10;93.00
57857;DHT22;43683;48.650;9.290;2022-12-07T07:34:34;2.10;93.00
57857;DHT22;43683;48.650;9.290;2022-12-07T07:36:59;2.20;92.90
57857;DHT22;43683;48.650;9.290;2022-12-07T07:39:25;2.20;92.90
57857;DHT22;43683;48.650;9.290;2022-12-07T07:41:50;2.30;92.90
57857;DHT22;43683;48.650;9.290;2022-12-07T07:44:16;2.40;92.90
57857;DHT22;43683;48.650;9.290;2022-12-07T07:46:41;2.40;92.80
57857;DHT22;43683;48.650;9.290;2022-12-07T07:49:08;2.50;92.70
57857;DHT22;43683;48.650;9.290;2022-12-07T07:51:34;2.60;92.70
57857;DHT22;43683;48.650;9.290;2022-12-07T07:53:59;2.70;92.60
57857;DHT22;43683;48.650;9.290;2022-12-07T07:56:25;2.70;92.60
57857;DHT22;43683;48.650;9.290;2022-12-07T07:58:55;2.80;92.50
57857;DHT22;43683;48.650;9.290;2022-12-07T08:01:21;2.90;92.50
57857;DHT22;43683;48.650;9.290;2022-12-07T08:03:46;3.00;92.40
57857;DHT22;43683;48.650;9.290;2022-12-07T08:06:12;3.00;92.30
57857;DHT22;43683;48.650;9.290;2022-12-07T08:08:38;3.10;92.30
57857;DHT22;43683;48.650;9.290;2022-12-07T08:11:10;3.10;92.20
57857;DHT22;43683;48.650;9.290;2022-12-07T08:13:36;3.20;92.20
57857;DHT22;43683;48.650;9.290;2022-12-07T08:16:06;3.30;92.20
57857;DHT22;43683;48.650;9.290;2022-12-07T08:18:37;3.40;92.20
57857;DHT22;43683;48.650;9.290;2022-12-07T08:21:03;3.50;92.20
57857;DHT22;43683;48.650;9.290;2022-12-07T08:23:29;3.50;92.10
57857;DHT22;43683;48.650;9.290;2022-12-07T08:25:55;3.50;92.10
57857;DHT22;43683;48.650;9.290;2022-12-07T08:28:24;3.50;92.10
57857;DHT22;43683;48.650;9.290;2022-12-07T08:30:50;3.60;92.10
57857;DHT22;43683;48.650;9.290;2022-12-07T08:33:15;3.70;92.00
57857;DHT22;43683;48.650;9.290;2022-12-07T08:35:41;3.70;92.00
57857;DHT22;43683;48.650;9.290;2022-12-07T08:38:07;3.70;92.00
57857;DHT22;43683;48.650;9.290;2022-12-07T08:40:32;3.80;92.00
57857;DHT22;43683;48.650;9.290;2022-12-07T08:42:57;3.90;92.30
57857;DHT22;43683;48.650;9.290;2022-12-07T08:45:23;3.90;91.90
57857;DHT22;43683;48.650;9.290;2022-12-07T08:47:59;4.00;91.90
57857;DHT22;43683;48.650;9.290;2022-12-07T08:50:27;4.00;91.80
57857;DHT22;43683;48.650;9.290;2022-12-07T08:52:55;4.00;91.80
57857;DHT22;43683;48.650;9.290;2022-12-07T08:55:22;4.10;91.80
57857;DHT22;43683;48.650;9.290;2022-12-07T08:57:48;4.10;91.70
57857;DHT22;43683;48.650;9.290;2022-12-07T09:00:14;4.10;91.70
57857;DHT22;43683;48.650;9.290;2022-12-07T09:02:42;4.20;91.70
57857;DHT22;43683;48.650;9.290;2022-12-07T09:05:08;4.20;91.70
57857;DHT22;43683;48.650;9.290;2022-12-07T09:07:34;4.20;91.60
57857;DHT22;43683;48.650;9.290;2022-12-07T09:10:01;4.30;91.60
57857;DHT22;43683;48.650;9.290;2022-12-07T09:12:26;4.40;91.50
57857;DHT22;43683;48.650;9.290;2022-12-07T09:14:52;4.40;91.50
57857;DHT22;43683;48.650;9.290;2022-12-07T09:17:17;4.60;91.50
57857;DHT22;43683;48.650;9.290;2022-12-07T09:19:43;4.60;91.40
57857;DHT22;43683;48.650;9.290;2022-12-07T09:22:09;4.60;91.40
57857;DHT22;43683;48.650;9.290;2022-12-07T09:24:34;4.60;91.50
57857;DHT22;43683;48.650;9.290;2022-12-07T09:27:00;4.70;91.40
57857;DHT22;43683;48.650;9.290;2022-12-07T09:29:27;4.70;91.40
57857;DHT22;43683;48.650;9.290;2022-12-07T09:31:52;4.70;91.40
57857;DHT22;43683;48.650;9.290;2022-12-07T09:34:18;4.80;91.30
57857;DHT22;43683;48.650;9.290;2022-12-07T09:36:44;4.80;91.30
57857;DHT22;43683;48.650;9.290;2022-12-07T09:39:10;4.90;91.30
57857;DHT22;43683;48.650;9.290;2022-12-07T09:41:40;4.90;91.20
57857;DHT22;43683;48.650;9.290;2022-12-07T09:44:11;5.00;91.20
57857;DHT22;43683;48.650;9.290;2022-12-07T09:46:39;5.10;91.10
57857;DHT22;43683;48.650;9.290;2022-12-07T09:49:08;5.30;91.00
57857;DHT22;43683;48.650;9.290;2022-12-07T09:51:35;5.30;91.00
57857;DHT22;43683;48.650;9.290;2022-12-07T09:54:01;5.50;91.00
57857;DHT22;43683;48.650;9.290;2022-12-07T09:56:29;5.60;90.80
57857;DHT22;43683;48.650;9.290;2022-12-07T09:59:00;5.70;90.70
57857;DHT22;43683;48.650;9.290;2022-12-07T10:01:33;5.80;90.60
57857;DHT22;43683;48.650;9.290;2022-12-07T10:04:12;5.80;90.60
57857;DHT22;43683;48.650;9.290;2022-12-07T10:06:38;5.80;90.60
57857;DHT22;43683;48.650;9.290;2022-12-07T10:09:14;5.80;90.70
57857;DHT22;43683;48.650;9.290;2022-12-07T10:12:18;5.80;90.60
57857;DHT22;43683;48.650;9.290;2022-12-07T10:15:00;5.70;90.40
57857;DHT22;43683;48.650;9.290;2022-12-07T10:17:36;5.80;90.40
57857;DHT22;43683;48.650;9.290;2022-12-07T10:20:20;5.70;90.30
57857;DHT22;43683;48.650;9.290;2022-12-07T10:22:59;5.60;90.20
57857;DHT22;43683;48.650;9.290;2022-12-07T10:25:31;5.60;90.20
57857;DHT22;43683;48.650;9.290;2022-12-07T10:28:09;5.70;90.10
57857;DHT22;43683;48.650;9.290;2022-12-07T10:30:55;5.70;90.00
57857;DHT22;43683;48.650;9.290;2022-12-07T10:33:37;5.80;89.70
57857;DHT22;43683;48.650;9.290;2022-12-07T10:36:34;5.80;89.50
57857;DHT22;43683;48.650;9.290;2022-12-07T10:41:29;5.90;89.20
57857;DHT22;43683;48.650;9.290;2022-12-07T10:43:57;5.90;89.10
57857;DHT22;43683;48.650;9.290;2022-12-07T10:46:43;6.00;88.90
57857;DHT22;43683;48.650;9.290;2022-12-07T10:49:36;6.20;88.50
57857;DHT22;43683;48.650;9.290;2022-12-07T10:58:02;6.20;88.60
57857;DHT22;43683;48.650;9.290;2022-12-07T11:00:43;6.20;88.20
57857;DHT22;43683;48.650;9.290;2022-12-07T11:05:54;6.30;88.10
57857;DHT22;43683;48.650;9.290;2022-12-07T11:11:38;6.50;87.40
57857;DHT22;43683;48.650;9.290;2022-12-07T11:14:13;6.50;87.20
57857;DHT22;43683;48.650;9.290;2022-12-07T11:17:26;6.40;87.40
57857;DHT22;43683;48.650;9.290;2022-12-07T11:20:27;6.30;87.30
57857;DHT22;43683;48.650;9.290;2022-12-07T11:23:04;6.30;87.30
57857;DHT22;43683;48.650;9.290;2022-12-07T11:25:58;6.30;87.30
57857;DHT22;43683;48.650;9.290;2022-12-07T11:31:11;6.30;87.30
57857;DHT22;43683;48.650;9.290;2022-12-07T11:33:53;6.30;87.30
57857;DHT22;43683;48.650;9.290;2022-12-07T11:39:16;6.40;86.90
57857;DHT22;43683;48.650;9.290;2022-12-07T11:41:48;6.40;86.90
57857;DHT22;43683;48.650;9.290;2022-12-07T11:44:31;6.40;86.90
57857;DHT22;43683;48.650;9.290;2022-12-07T11:47:09;6.40;86.40
57857;DHT22;43683;48.650;9.290;2022-12-07T11:52:32;6.50;86.20
57857;DHT22;43683;48.650;9.290;2022-12-07T11:54:59;6.50;86.90
57857;DHT22;43683;48.650;9.290;2022-12-07T11:57:37;6.60;85.80
57857;DHT22;43683;48.650;9.290;2022-12-07T12:00:12;6.70;85.30
57857;DHT22;43683;48.650;9.290;2022-12-07T12:03:01;6.80;85.30
57857;DHT22;43683;48.650;9.290;2022-12-07T12:05:28;6.90;84.90
57857;DHT22;43683;48.650;9.290;2022-12-07T12:08:11;6.80;85.30
57857;DHT22;43683;48.650;9.290;2022-12-07T12:10:45;6.80;85.20
57857;DHT22;43683;48.650;9.290;2022-12-07T12:13:27;6.90;85.30
57857;DHT22;43683;48.650;9.290;2022-12-07T12:21:08;7.00;84.70
57857;DHT22;43683;48.650;9.290;2022-12-07T12:23:44;7.00;84.70
57857;DHT22;43683;48.650;9.290;2022-12-07T12:26:22;6.90;84.60
57857;DHT22;43683;48.650;9.290;2022-12-07T12:29:05;6.90;84.70
57857;DHT22;43683;48.650;9.290;2022-12-07T12:31:37;6.80;84.80
57857;DHT22;43683;48.650;9.290;2022-12-07T12:34:40;6.70;84.90
57857;DHT22;43683;48.650;9.290;2022-12-07T12:37:39;6.70;84.80
57857;DHT22;43683;48.650;9.290;2022-12-07T12:43:38;6.40;85.40
57857;DHT22;43683;48.650;9.290;2022-12-07T12:51:55;6.30;85.40
57857;DHT22;43683;48.650;9.290;2022-12-07T12:54:25;6.30;85.30
57857;DHT22;43683;48.650;9.290;2022-12-07T13:02:28;6.20;85.10
57857;DHT22;43683;48.650;9.290;2022-12-07T13:15:48;6.10;84.90
57857;DHT22;43683;48.650;9.290;2022-12-07T13:26:17;5.80;85.30
57857;DHT22;43683;48.650;9.290;2022-12-07T13:28:48;5.80;85.40
57857;DHT22;43683;48.650;9.290;2022-12-07T13:33:53;5.90;85.20
57857;DHT22;43683;48.650;9.290;2022-12-07T13:36:22;6.00;85.20
57857;DHT22;43683;48.650;9.290;2022-12-07T13:38:59;6.00;85.00
57857;DHT22;43683;48.650;9.290;2022-12-07T13:41:28;6.00;85.00
57857;DHT22;43683;48.650;9.290;2022-12-07T13:49:22;6.00;85.20
57857;DHT22;43683;48.650;9.290;2022-12-07T13:51:48;5.90;85.30
57857;DHT22;43683;48.650;9.290;2022-12-07T13:54:14;5.90;85.20
57857;DHT22;43683;48.650;9.290;2022-12-07T13:56:41;5.90;85.30
57857;DHT22;43683;48.650;9.290;2022-12-07T13:59:19;5.80;85.40
57857;DHT22;43683;48.650;9.290;2022-12-07T14:01:47;5.90;85.30
57857;DHT22;43683;48.650;9.290;2022-12-07T14:04:35;5.80;85.30
57857;DHT22;43683;48.650;9.290;2022-12-07T14:09:57;5.70;85.50
57857;DHT22;43683;48.650;9.290;2022-12-07T14:12:24;5.50;85.60
57857;DHT22;43683;48.650;9.290;2022-12-07T14:14:50;5.50;85.80
57857;DHT22;43683;48.650;9.290;2022-12-07T14:17:21;5.50;85.80
57857;DHT22;43683;48.650;9.290;2022-12-07T14:19:52;5.50;85.90
57857;DHT22;43683;48.650;9.290;2022-12-07T14:22:24;5.40;85.90
57857;DHT22;43683;48.650;9.290;2022-12-07T14:24:50;5.40;86.00
57857;DHT22;43683;48.650;9.290;2022-12-07T14:27:23;5.30;86.10
57857;DHT22;43683;48.650;9.290;2022-12-07T14:29:51;5.30;86.10
57857;DHT22;43683;48.650;9.290;2022-12-07T14:32:28;5.30;86.30
57857;DHT22;43683;48.650;9.290;2022-12-07T14:35:14;5.20;86.30
57857;DHT22;43683;48.650;9.290;2022-12-07T14:37:42;5.20;86.30
57857;DHT22;43683;48.650;9.290;2022-12-07T14:40:13;5.20;86.20
57857;DHT22;43683;48.650;9.290;2022-12-07T14:42:39;5.20;86.80
57857;DHT22;43683;48.650;9.290;2022-12-07T14:45:06;5.20;86.10
57857;DHT22;43683;48.650;9.290;2022-12-07T14:47:38;5.20;86.10
57857;DHT22;43683;48.650;9.290;2022-12-07T14:50:04;5.10;86.20
57857;DHT22;43683;48.650;9.290;2022-12-07T14:52:29;5.00;86.30
57857;DHT22;43683;48.650;9.290;2022-12-07T14:54:58;5.00;86.50
57857;DHT22;43683;48.650;9.290;2022-12-07T14:57:23;5.00;86.40
57857;DHT22;43683;48.650;9.290;2022-12-07T14:59:49;5.00;86.30
57857;DHT22;43683;48.650;9.290;2022-12-07T15:02:15;5.00;86.40
57857;DHT22;43683;48.650;9.290;2022-12-07T15:04:40;5.00;86.30
57857;DHT22;43683;48.650;9.290;2022-12-07T15:07:13;4.90;86.40
57857;DHT22;43683;48.650;9.290;2022-12-07T15:09:40;4.90;86.60
57857;DHT22;43683;48.650;9.290;2022-12-07T15:12:06;4.80;86.70
57857;DHT22;43683;48.650;9.290;2022-12-07T15:14:31;4.70;86.80
57857;DHT22;43683;48.650;9.290;2022-12-07T15:16:57;4.70;86.90
57857;DHT22;43683;48.650;9.290;2022-12-07T15:19:24;4.60;86.90
57857;DHT22;43683;48.650;9.290;2022-12-07T15:21:51;4.60;86.90
57857;DHT22;43683;48.650;9.290;2022-12-07T15:24:17;4.50;86.90
57857;DHT22;43683;48.650;9.290;2022-12-07T15:26:43;4.50;87.00
57857;DHT22;43683;48.650;9.290;2022-12-07T15:29:10;4.40;87.00
57857;DHT22;43683;48.650;9.290;2022-12-07T15:31:36;4.40;87.20
57857;DHT22;43683;48.650;9.290;2022-12-07T15:34:02;4.30;87.30
57857;DHT22;43683;48.650;9.290;2022-12-07T15:36:31;4.20;87.40
57857;DHT22;43683;48.650;9.290;2022-12-07T15:38:57;4.20;87.50
57857;DHT22;43683;48.650;9.290;2022-12-07T15:41:23;4.10;87.50
57857;DHT22;43683;48.650;9.290;2022-12-07T15:43:49;4.10;87.50
57857;DHT22;43683;48.650;9.290;2022-12-07T15:46:34;4.10;87.50
57857;DHT22;43683;48.650;9.290;2022-12-07T15:49:01;4.10;87.50
57857;DHT22;43683;48.650;9.290;2022-12-07T15:51:27;4.10;87.50
57857;DHT22;43683;48.650;9.290;2022-12-07T15:53:53;4.00;87.30
57857;DHT22;43683;48.650;9.290;2022-12-07T15:56:18;4.00;87.30
57857;DHT22;43683;48.650;9.290;2022-12-07T15:58:44;4.00;87.20
57857;DHT22;43683;48.650;9.290;2022-12-07T16:01:15;4.00;87.20
57857;DHT22;43683;48.650;9.290;2022-12-07T16:03:41;4.00;87.20
57857;DHT22;43683;48.650;9.290;2022-12-07T16:06:07;4.00;87.20
57857;DHT22;43683;48.650;9.290;2022-12-07T16:08:33;4.00;88.00
57857;DHT22;43683;48.650;9.290;2022-12-07T16:10:59;3.90;87.40
57857;DHT22;43683;48.650;9.290;2022-12-07T16:13:24;3.90;87.40
57857;DHT22;43683;48.650;9.290;2022-12-07T16:15:50;3.80;87.50
57857;DHT22;43683;48.650;9.290;2022-12-07T16:18:15;3.80;87.70
57857;DHT22;43683;48.650;9.290;2022-12-07T16:20:41;3.70;87.90
57857;DHT22;43683;48.650;9.290;2022-12-07T16:23:06;3.70;88.10
57857;DHT22;43683;48.650;9.290;2022-12-07T16:25:32;3.60;88.20
57857;DHT22;43683;48.650;9.290;2022-12-07T16:27:58;3.60;88.30
57857;DHT22;43683;48.650;9.290;2022-12-07T16:30:24;3.60;88.30
57857;DHT22;43683;48.650;9.290;2022-12-07T16:32:51;3.60;88.20
57857;DHT22;43683;48.650;9.290;2022-12-07T16:35:16;3.60;88.10
57857;DHT22;43683;48.650;9.290;2022-12-07T16:37:42;3.60;88.00
57857;DHT22;43683;48.650;9.290;2022-12-07T16:40:09;3.60;88.10
57857;DHT22;43683;48.650;9.290;2022-12-07T16:42:35;3.50;88.20
57857;DHT22;43683;48.650;9.290;2022-12-07T16:45:03;3.50;88.30
57857;DHT22;43683;48.650;9.290;2022-12-07T16:47:28;3.50;88.30
57857;DHT22;43683;48.650;9.290;2022-12-07T16:49:54;3.50;88.30
57857;DHT22;43683;48.650;9.290;2022-12-07T16:52:20;3.50;88.40
57857;DHT22;43683;48.650;9.290;2022-12-07T16:54:49;3.50;88.40
57857;DHT22;43683;48.650;9.290;2022-12-07T16:57:16;3.50;88.30
57857;DHT22;43683;48.650;9.290;2022-12-07T16:59:42;3.50;88.30
57857;DHT22;43683;48.650;9.290;2022-12-07T17:02:11;3.50;88.30
57857;DHT22;43683;48.650;9.290;2022-12-07T17:04:36;3.50;88.40
57857;DHT22;43683;48.650;9.290;2022-12-07T17:07:08;3.50;88.50
57857;DHT22;43683;48.650;9.290;2022-12-07T17:09:33;3.50;88.60
57857;DHT22;43683;48.650;9.290;2022-12-07T17:12:00;3.50;88.60
57857;DHT22;43683;48.650;9.290;2022-12-07T17:14:26;3.60;88.50
57857;DHT22;43683;48.650;9.290;2022-12-07T17:17:10;3.60;88.40
57857;DHT22;43683;48.650;9.290;2022-12-07T17:19:35;3.60;88.40
57857;DHT22;43683;48.650;9.290;2022-12-07T17:22:01;3.70;88.40
57857;DHT22;43683;48.650;9.290;2022-12-07T17:24:26;3.70;88.30
57857;DHT22;43683;48.650;9.290;2022-12-07T17:26:52;3.70;88.30
57857;DHT22;43683;48.650;9.290;2022-12-07T17:29:18;3.70;88.30
57857;DHT22;43683;48.650;9.290;2022-12-07T17:31:45;3.70;89.00
57857;DHT22;43683;48.650;9.290;2022-12-07T17:34:13;3.70;88.30
57857;DHT22;43683;48.650;9.290;2022-12-07T17:36:39;3.70;88.20
57857;DHT22;43683;48.650;9.290;2022-12-07T17:39:09;3.60;88.20
57857;DHT22;43683;48.650;9.290;2022-12-07T17:41:35;3.60;88.30
57857;DHT22;43683;48.650;9.290;2022-12-07T17:44:19;3.60;88.50
57857;DHT22;43683;48.650;9.290;2022-12-07T17:46:47;3.50;88.50
57857;DHT22;43683;48.650;9.290;2022-12-07T17:49:13;3.50;88.60
57857;DHT22;43683;48.650;9.290;2022-12-07T17:51:39;3.50;88.60
57857;DHT22;43683;48.650;9.290;2022-12-07T17:54:23;3.50;88.60
57857;DHT22;43683;48.650;9.290;2022-12-07T17:56:49;3.50;88.60
57857;DHT22;43683;48.650;9.290;2022-12-07T17:59:15;3.40;88.50